createdAt,value
2017-08-07T00:01:10.881Z,6.57
2017-08-07T00:06:39.342Z,7.50
2017-08-07T00:09:07.563Z,6.00
2017-08-07T00:11:35.787Z,5.60
2017-08-07T00:14:14.275Z,6.20
2017-08-07T00:16:42.510Z,7.27
2017-08-07T00:19:10.740Z,6.43
2017-08-07T00:21:39.015Z,6.03
2017-08-07T00:24:07.254Z,6.50
2017-08-07T00:29:36.739Z,6.10
2017-08-07T00:32:04.972Z,8.13
2017-08-07T00:34:33.972Z,6.30
2017-08-07T00:40:13.724Z,6.37
2017-08-07T00:42:42.730Z,6.50
2017-08-07T00:45:14.543Z,7.90
2017-08-07T00:47:42.766Z,7.77
2017-08-07T00:50:10.974Z,7.20
2017-08-07T00:52:39.244Z,7.93
2017-08-07T00:55:07.494Z,8.17
2017-08-07T00:57:35.727Z,7.47
2017-08-07T01:00:03.994Z,5.73
2017-08-07T01:02:32.210Z,7.23
2017-08-07T01:05:14.509Z,7.67
2017-08-07T01:07:43.510Z,6.70
2017-08-07T01:13:14.595Z,7.47
2017-08-07T01:15:42.824Z,6.10
2017-08-07T01:18:14.979Z,6.37
2017-08-07T01:20:43.205Z,6.87
2017-08-07T01:23:14.338Z,6.50
2017-08-07T01:25:42.602Z,7.67
2017-08-07T01:28:14.691Z,6.80
2017-08-07T01:30:42.942Z,7.23
2017-08-07T01:33:15.282Z,5.10
2017-08-07T01:35:43.559Z,5.87
2017-08-07T01:38:11.774Z,5.93
2017-08-07T01:40:40.012Z,6.63
2017-08-07T01:43:08.285Z,6.27
2017-08-07T01:45:36.501Z,6.30
2017-08-07T01:48:14.969Z,6.77
2017-08-07T01:50:43.224Z,7.13
2017-08-07T01:53:11.452Z,6.43
2017-08-07T01:58:40.830Z,7.13
2017-08-07T02:01:15.856Z,6.40
2017-08-07T02:03:44.106Z,8.40
2017-08-07T02:06:12.341Z,5.70
2017-08-07T02:08:41.342Z,5.83
2017-08-07T02:11:10.492Z,6.53
2017-08-07T02:13:38.718Z,7.30
2017-08-07T02:16:06.938Z,6.23
2017-08-07T02:18:35.200Z,6.80
2017-08-07T02:21:03.434Z,6.10
2017-08-07T02:26:34.046Z,7.20
2017-08-07T02:41:57.240Z,5.90
2017-08-07T02:44:25.470Z,6.10
2017-08-07T02:47:13.320Z,5.50
2017-08-07T02:49:41.539Z,6.20
2017-08-07T02:52:09.762Z,7.93
2017-08-07T02:54:38.026Z,5.97
2017-08-07T03:08:41.642Z,5.87
2017-08-07T03:26:28.672Z,5.95
2017-08-07T03:29:13.412Z,6.27
2017-08-07T03:31:42.441Z,7.23
2017-08-07T03:34:10.686Z,5.73
2017-08-07T03:39:16.537Z,6.03
2017-08-07T03:41:44.795Z,5.70
2017-08-07T03:55:43.010Z,6.10
2017-08-07T04:24:17.227Z,6.00
2017-08-07T04:26:46.054Z,5.90
2017-08-07T04:32:14.250Z,7.00
2017-08-07T04:37:26.826Z,6.50
2017-08-07T04:39:55.071Z,7.13
2017-08-07T04:42:23.295Z,6.70
2017-08-07T04:44:51.556Z,5.77
2017-08-07T04:47:19.778Z,6.23
2017-08-07T04:49:48.003Z,6.00
2017-08-07T04:52:16.267Z,6.40
2017-08-07T04:54:44.484Z,6.33
2017-08-07T04:57:14.383Z,5.97
2017-08-07T04:59:43.418Z,5.97
2017-08-07T05:02:11.638Z,7.60
2017-08-07T05:04:39.863Z,7.60
2017-08-07T05:07:08.131Z,7.93
2017-08-07T05:09:36.436Z,7.23
2017-08-07T05:12:04.650Z,8.63
2017-08-07T05:14:32.897Z,7.20
2017-08-07T05:17:01.125Z,9.63
2017-08-07T05:19:30.144Z,7.20
2017-08-07T05:21:58.440Z,8.70
2017-08-07T05:27:05.618Z,6.67
2017-08-07T05:29:33.852Z,6.40
2017-08-07T05:32:02.083Z,8.70
2017-08-07T05:37:30.971Z,7.63
2017-08-07T05:39:59.198Z,8.03
2017-08-07T05:42:27.430Z,5.80
2017-08-07T05:44:55.701Z,7.80
2017-08-07T05:47:23.955Z,8.43
2017-08-07T05:49:52.939Z,8.33
2017-08-07T05:52:21.970Z,6.20
2017-08-07T05:54:50.186Z,7.77
2017-08-07T05:57:18.424Z,8.13
2017-08-07T05:59:46.692Z,6.13
2017-08-07T06:02:14.930Z,7.30
2017-08-07T06:04:43.187Z,6.83
2017-08-07T06:07:15.025Z,9.83
2017-08-07T06:09:43.282Z,8.10
2017-08-07T06:12:11.498Z,8.30
2017-08-07T06:14:39.776Z,7.70
2017-08-07T06:17:14.643Z,7.43
2017-08-07T06:19:42.910Z,6.33
2017-08-07T06:22:11.136Z,8.83
2017-08-07T06:24:39.350Z,5.83
2017-08-07T06:27:14.040Z,7.10
2017-08-07T06:29:42.257Z,6.27
2017-08-07T06:32:10.481Z,7.80
2017-08-07T06:34:38.752Z,6.63
2017-08-07T06:37:07.030Z,5.90
2017-08-07T06:39:35.252Z,8.00
2017-08-07T06:45:14.434Z,8.37
2017-08-07T06:47:42.687Z,5.57
2017-08-07T06:50:10.921Z,173.40
2017-08-07T06:52:39.198Z,192.87
2017-08-07T06:55:14.333Z,221.47
2017-08-07T06:57:42.606Z,153.57
2017-08-07T07:00:11.632Z,90.90
2017-08-07T07:05:41.500Z,63.90
2017-08-07T07:08:09.739Z,33.07
2017-08-07T07:10:38.731Z,41.43
2017-08-07T07:13:14.578Z,33.40
2017-08-07T07:16:13.361Z,14.77
2017-08-07T07:27:26.990Z,12.90
2017-08-07T07:30:14.523Z,8.63
2017-08-07T07:32:43.001Z,8.30
2017-08-07T07:35:14.565Z,7.30
2017-08-07T07:40:39.231Z,8.20
2017-08-07T07:43:14.616Z,11.30
2017-08-07T07:46:13.464Z,7.53
2017-08-07T07:54:16.043Z,5.47
2017-08-07T07:57:14.313Z,6.00
2017-08-07T08:00:12.920Z,5.10
2017-08-07T08:12:14.045Z,5.87
2017-08-07T08:15:12.777Z,5.70
2017-08-07T08:17:41.089Z,5.40
2017-08-07T08:20:15.490Z,8.00
2017-08-07T08:22:43.749Z,5.73
2017-08-07T08:25:15.294Z,4.93
2017-08-07T08:27:44.798Z,6.00
2017-08-07T08:30:14.655Z,6.70
2017-08-07T08:33:12.973Z,12.30
2017-08-07T08:35:41.198Z,8.37
2017-08-07T08:41:09.630Z,5.63
2017-08-07T08:43:38.630Z,5.00
2017-08-07T08:46:07.655Z,4.93
2017-08-07T08:48:35.947Z,5.20
2017-08-07T08:51:14.392Z,4.57
2017-08-07T08:53:42.682Z,5.47
2017-08-07T08:56:10.944Z,5.23
2017-08-07T08:58:39.167Z,7.30
2017-08-07T09:01:07.450Z,6.73
2017-08-07T09:03:35.666Z,6.03
2017-08-07T09:06:03.883Z,4.80
2017-08-07T09:08:32.132Z,5.90
2017-08-07T09:11:01.121Z,5.90
2017-08-07T09:13:30.184Z,4.70
2017-08-07T09:15:58.413Z,4.40
2017-08-07T09:21:26.870Z,6.00
2017-08-07T09:23:55.168Z,4.30
2017-08-07T09:26:24.158Z,8.63
2017-08-07T09:31:53.746Z,4.57
2017-08-07T09:34:21.976Z,6.17
2017-08-07T09:36:50.202Z,5.60
2017-08-07T09:39:18.452Z,5.17
2017-08-07T09:41:46.714Z,5.83
2017-08-07T09:44:14.941Z,6.47
2017-08-07T09:46:43.193Z,7.83
2017-08-07T09:49:11.420Z,4.60
2017-08-07T09:51:40.484Z,5.37
2017-08-07T09:54:08.720Z,5.37
2017-08-07T09:56:36.950Z,5.07
2017-08-07T09:59:05.239Z,10.20
2017-08-07T10:01:34.225Z,5.93
2017-08-07T10:04:03.220Z,5.60
2017-08-07T10:06:32.240Z,4.43
2017-08-07T10:09:00.516Z,4.70
2017-08-07T10:11:28.737Z,4.83
2017-08-07T10:13:56.996Z,6.80
2017-08-07T10:16:25.299Z,7.60
2017-08-07T10:18:53.541Z,7.83
2017-08-07T10:21:21.767Z,6.13
2017-08-07T10:23:50.810Z,6.93
2017-08-07T10:26:19.029Z,6.63
2017-08-07T10:31:26.619Z,5.33
2017-08-07T10:33:54.837Z,5.83
2017-08-07T10:36:23.057Z,5.40
2017-08-07T10:38:51.346Z,4.73
2017-08-07T10:41:19.585Z,7.80
2017-08-07T10:43:47.784Z,5.77
2017-08-07T10:46:16.072Z,4.53
2017-08-07T10:48:44.297Z,4.90
2017-08-07T10:51:12.504Z,4.80
2017-08-07T10:56:41.704Z,5.90
2017-08-07T10:59:09.946Z,6.80
2017-08-07T11:01:38.188Z,4.87
2017-08-07T11:04:06.453Z,5.40
2017-08-07T11:06:34.691Z,4.90
2017-08-07T11:09:15.990Z,7.20
2017-08-07T11:11:44.215Z,5.13
2017-08-07T11:14:13.285Z,5.00
2017-08-07T11:19:41.282Z,6.70
2017-08-07T11:22:09.503Z,4.40
2017-08-07T11:27:21.173Z,5.00
2017-08-07T11:29:50.233Z,4.93
2017-08-07T11:32:18.442Z,4.73
2017-08-07T11:34:47.425Z,5.43
2017-08-07T11:37:15.714Z,5.00
2017-08-07T11:39:44.700Z,5.50
2017-08-07T11:42:13.707Z,5.30
2017-08-07T11:44:42.014Z,4.83
2017-08-07T11:47:10.241Z,4.47
2017-08-07T11:49:39.243Z,5.70
2017-08-07T11:52:08.298Z,5.03
2017-08-07T11:57:37.301Z,4.63
2017-08-07T12:00:05.531Z,5.00
2017-08-07T12:02:33.769Z,4.10
2017-08-07T12:05:02.060Z,4.40
2017-08-07T12:10:31.458Z,5.60
2017-08-07T12:12:59.680Z,5.93
2017-08-07T12:15:28.741Z,4.90
2017-08-07T12:17:56.958Z,6.80
2017-08-07T12:20:25.176Z,4.60
2017-08-07T12:23:13.937Z,4.60
2017-08-07T12:25:42.148Z,4.50
2017-08-07T12:28:11.127Z,4.53
2017-08-07T12:30:40.180Z,5.10
2017-08-07T12:33:08.409Z,6.70
2017-08-07T12:35:36.633Z,7.83
2017-08-07T12:38:04.960Z,4.60
2017-08-07T12:40:33.192Z,5.10
2017-08-07T12:43:01.409Z,5.10
2017-08-07T12:48:31.038Z,5.90
2017-08-07T12:51:13.902Z,6.90
2017-08-07T12:53:42.203Z,4.57
2017-08-07T12:56:11.273Z,4.97
2017-08-07T12:58:39.481Z,4.90
2017-08-07T13:01:07.773Z,6.77
2017-08-07T13:03:36.763Z,4.80
2017-08-07T13:06:05.841Z,5.33
2017-08-07T13:08:34.058Z,4.83
2017-08-07T13:11:02.282Z,5.37
2017-08-07T13:13:30.569Z,6.07
2017-08-07T13:15:59.561Z,5.70
2017-08-07T13:21:27.749Z,5.93
2017-08-07T13:23:55.986Z,4.57
2017-08-07T13:26:24.238Z,4.40
2017-08-07T13:28:52.492Z,6.50
2017-08-07T13:31:21.478Z,7.80
2017-08-07T13:33:50.552Z,6.40
2017-08-07T13:36:18.817Z,5.00
2017-08-07T13:38:47.057Z,4.60
2017-08-07T13:41:15.346Z,4.90
2017-08-07T13:43:43.574Z,5.03
2017-08-07T13:49:47.182Z,6.07
2017-08-07T13:52:15.430Z,4.83
2017-08-07T13:54:43.679Z,4.67
2017-08-07T13:57:15.125Z,4.77
2017-08-07T13:59:43.362Z,6.90
2017-08-07T14:02:11.605Z,6.43
2017-08-07T14:04:39.902Z,4.90
2017-08-07T14:07:08.156Z,5.63
2017-08-07T14:09:36.386Z,6.00
2017-08-07T14:12:04.709Z,6.87
2017-08-07T14:17:33.575Z,5.43
2017-08-07T14:20:01.819Z,4.70
2017-08-07T14:22:30.059Z,4.80
2017-08-07T14:25:15.373Z,4.20
2017-08-07T14:28:13.522Z,5.33
2017-08-07T14:30:41.837Z,5.20
2017-08-07T14:33:10.851Z,5.50
2017-08-07T14:35:39.095Z,6.20
2017-08-07T14:38:08.158Z,5.00
2017-08-07T14:40:36.412Z,4.93
2017-08-07T14:43:15.371Z,7.17
2017-08-07T14:45:43.640Z,4.93
2017-08-07T14:48:15.148Z,4.93
2017-08-07T14:51:13.573Z,4.50
2017-08-07T14:53:41.883Z,8.50
2017-08-07T14:56:16.333Z,6.83
2017-08-07T14:59:13.172Z,4.70
2017-08-07T15:07:41.816Z,6.07
2017-08-07T15:10:16.050Z,4.73
2017-08-07T15:13:14.883Z,6.60
2017-08-07T15:19:13.975Z,5.07
2017-08-07T15:24:19.958Z,7.40
2017-08-07T15:27:14.421Z,4.50
2017-08-07T15:29:42.751Z,5.60
2017-08-07T15:32:10.985Z,6.13
2017-08-07T15:43:39.558Z,5.10
2017-08-07T15:46:15.004Z,6.73
2017-08-07T15:52:13.000Z,6.00
2017-08-07T16:00:19.948Z,4.77
2017-08-07T16:02:48.253Z,4.83
2017-08-07T16:05:16.488Z,5.57
2017-08-07T16:11:13.984Z,4.80
2017-08-07T16:19:20.244Z,6.07
2017-08-07T16:22:14.507Z,4.50
2017-08-07T16:25:13.271Z,4.73
2017-08-07T16:27:41.523Z,4.40
2017-08-07T16:33:16.025Z,5.10
2017-08-07T16:36:15.416Z,6.50
2017-08-07T16:42:14.762Z,7.87
2017-08-07T16:48:14.056Z,4.40
2017-08-07T16:53:42.803Z,6.57
2017-08-07T16:56:16.957Z,4.70
2017-08-07T16:59:13.644Z,5.20
2017-08-07T17:07:18.364Z,4.20
2017-08-07T17:09:57.080Z,4.80
2017-08-07T17:18:46.321Z,6.17
2017-08-07T17:21:15.346Z,4.40
2017-08-07T17:24:13.411Z,5.40
2017-08-07T17:36:03.088Z,13.40
2017-08-07T17:47:32.290Z,442.50
2017-08-07T17:50:01.333Z,248.67
2017-08-07T17:52:29.595Z,120.73
2017-08-07T17:54:57.922Z,71.13
2017-08-07T17:57:26.928Z,60.23
2017-08-07T18:00:15.781Z,49.87
2017-08-07T18:03:13.054Z,25.47
2017-08-07T18:05:41.315Z,29.37
2017-08-07T18:08:10.315Z,12.43
2017-08-07T18:10:39.561Z,15.23
2017-08-07T18:13:07.847Z,8.00
2017-08-07T18:15:36.155Z,6.50
2017-08-07T18:18:05.162Z,8.30
2017-08-07T18:20:33.437Z,7.97
2017-08-07T18:25:52.149Z,7.87
2017-08-07T18:28:20.400Z,6.37
2017-08-07T18:30:48.645Z,6.27
2017-08-07T18:33:17.703Z,6.27
2017-08-07T18:35:45.934Z,6.70
2017-08-07T18:38:14.185Z,9.43
2017-08-07T18:40:42.497Z,8.80
2017-08-07T18:43:10.774Z,8.00
2017-08-07T18:45:39.056Z,11.20
2017-08-07T18:48:07.350Z,7.20
2017-08-07T18:53:36.153Z,72.63
2017-08-07T18:56:17.122Z,32.37
2017-08-07T18:58:45.408Z,20.20
2017-08-07T19:03:51.731Z,14.77
2017-08-07T19:06:20.774Z,9.77
2017-08-07T19:08:49.034Z,10.03
2017-08-07T19:11:17.298Z,9.63
2017-08-07T19:13:45.528Z,14.93
2017-08-07T19:16:13.759Z,10.97
2017-08-07T19:18:42.157Z,9.23
2017-08-07T19:21:10.367Z,7.10
2017-08-07T19:23:38.581Z,8.57
2017-08-07T19:26:06.869Z,6.67
2017-08-07T19:28:35.089Z,5.93
2017-08-07T19:31:03.306Z,5.73
2017-08-07T19:33:31.791Z,8.27
2017-08-07T19:36:00.009Z,6.37
2017-08-07T19:38:28.225Z,6.30
2017-08-07T19:40:56.484Z,5.77
2017-08-07T19:43:25.458Z,7.10
2017-08-07T19:45:53.804Z,6.00
2017-08-07T19:48:22.062Z,6.20
2017-08-07T19:50:50.295Z,6.30
2017-08-07T19:53:19.283Z,6.50
2017-08-07T19:55:47.537Z,7.30
2017-08-07T19:58:16.185Z,8.93
2017-08-07T20:00:44.429Z,10.10
2017-08-07T20:03:15.079Z,12.90
2017-08-07T20:05:43.327Z,15.00
2017-08-07T20:08:12.335Z,11.53
2017-08-07T20:10:41.367Z,20.40
2017-08-07T20:13:09.625Z,11.67
2017-08-07T20:15:37.879Z,18.57
2017-08-07T20:18:15.391Z,18.07
2017-08-07T20:23:50.893Z,24.53
2017-08-07T20:26:19.118Z,33.00
2017-08-07T20:29:13.833Z,43.87
2017-08-07T20:31:42.066Z,46.37
2017-08-07T20:34:35.002Z,53.73
2017-08-07T20:37:03.244Z,44.70
2017-08-07T20:39:31.477Z,55.57
2017-08-07T20:42:00.537Z,65.63
2017-08-07T20:44:28.805Z,40.53
2017-08-07T20:47:16.289Z,55.40
2017-08-07T20:49:44.517Z,65.53
2017-08-07T20:52:12.744Z,40.17
2017-08-07T20:57:41.188Z,71.03
2017-08-07T21:00:09.488Z,51.97
2017-08-07T21:02:37.714Z,54.10
2017-08-07T21:05:05.980Z,61.47
2017-08-07T21:07:34.212Z,73.77
2017-08-07T21:10:03.222Z,47.00
2017-08-07T21:12:32.272Z,77.10
2017-08-07T21:15:00.499Z,44.80
2017-08-07T21:17:28.727Z,50.27
2017-08-07T21:19:56.986Z,33.07
2017-08-07T21:22:25.221Z,66.83
2017-08-07T21:25:14.754Z,65.80
2017-08-07T21:27:42.988Z,51.07
2017-08-07T21:30:15.081Z,55.10
2017-08-07T21:32:43.298Z,32.33
2017-08-07T21:35:12.277Z,48.13
2017-08-07T21:37:40.545Z,52.20
2017-08-07T21:40:08.774Z,18.77
2017-08-07T21:42:37.010Z,24.17
2017-08-07T21:45:16.015Z,32.23
2017-08-07T21:47:44.288Z,18.30
2017-08-07T21:50:12.514Z,54.73
2017-08-07T21:52:40.774Z,48.40
2017-08-07T21:55:15.781Z,24.87
2017-08-07T21:58:14.280Z,31.50
2017-08-07T22:00:43.286Z,21.03
2017-08-07T22:03:12.274Z,30.50
2017-08-07T22:05:41.302Z,42.90
2017-08-07T22:08:09.528Z,23.47
2017-08-07T22:10:38.532Z,13.70
2017-08-07T22:13:07.553Z,23.10
2017-08-07T22:15:35.801Z,40.73
2017-08-07T22:18:04.801Z,29.73
2017-08-07T22:23:33.292Z,21.00
2017-08-07T22:26:15.418Z,37.93
2017-08-07T22:28:43.686Z,33.23
2017-08-07T22:31:11.913Z,34.73
2017-08-07T22:33:40.146Z,34.97
2017-08-07T22:36:08.434Z,25.80
2017-08-07T22:38:36.662Z,22.07
2017-08-07T22:41:05.669Z,25.17
2017-08-07T22:43:33.949Z,21.23
2017-08-07T22:46:02.189Z,20.97
2017-08-07T22:48:30.412Z,22.07
2017-08-07T22:50:58.712Z,29.47
2017-08-07T22:56:26.728Z,11.83
2017-08-07T22:59:14.150Z,19.87
2017-08-07T23:01:42.423Z,20.63
2017-08-07T23:04:10.650Z,16.23
2017-08-07T23:06:38.875Z,22.17
2017-08-07T23:09:14.586Z,21.60
2017-08-07T23:11:42.815Z,19.60
2017-08-07T23:14:11.816Z,18.03
2017-08-07T23:19:41.890Z,12.47
2017-08-07T23:22:16.495Z,16.40
2017-08-07T23:24:44.762Z,18.47
2017-08-07T23:27:13.747Z,12.40
2017-08-07T23:29:42.733Z,17.03
2017-08-07T23:32:11.757Z,11.13
2017-08-07T23:37:40.481Z,12.17
2017-08-07T23:40:08.720Z,8.67
2017-08-07T23:42:37.713Z,14.73
2017-08-07T23:45:16.484Z,12.53
2017-08-07T23:48:14.873Z,11.43
2017-08-07T23:50:43.138Z,13.47
2017-08-07T23:53:11.370Z,12.17
2017-08-07T23:55:39.601Z,16.70
2017-08-07T23:58:07.883Z,10.20
